Terminal Aerodrome Forecast
Issued by NWS Upton, NY

Home | Current Version | Previous Version | Text Only | Print | Product List | Glossary On
Versions: 1 2 3 4 5 6 7 8 9 10 11 12 13 14 15 16 17 18 19 20 21 22 23 24 25 26 27 28 29 30 31 32 33
000
FTUS41 KOKX 280521
TAFJFK
TAF
KJFK 280521Z 2806/2912 VRB04KT P6SM SCT250
     FM281000 11005KT P6SM SCT250
     FM281500 15008KT P6SM SCT250
     FM281800 17011KT P6SM SCT250
     FM290300 19007KT P6SM SCT250
     FM290900 24005KT P6SM SCT100 BKN250=

USA.gov is the U.S. government's official web portal to all federal, state and local government web resources and services.